Time;durP1;ratioP1;P1;durP2;ratioP2;P2;SDS_P1;SDS_P2;PMS_P1;PMS_P2;Temp;Humidity;BMP_temperature;BMP_pressure;BME280_temperature;BME280_humidity;BME280_pressure;Samples;Min_cycle;Max_cycle;Signal;HPM_P1;HPM_P2
2023/03/28 05:09:06;;;;;;;;;;;;;;;;;;5052359;28;20252;-43
2023/03/28 05:11:32;;;;;;;;;;;;;;;;;;5058095;28;19963;-44
2023/03/28 05:13:58;;;;;;;;;;;;;;;;;;5048988;28;19999;-44
2023/03/28 05:16:24;;;;;;;;;;;;;;;;;;5049272;28;19995;-44
2023/03/28 05:18:50;;;;;;;;;;;;;;;;;;5048431;28;20284;-44
2023/03/28 05:21:16;;;;;;;;;;;;;;;;;;5048989;28;19913;-45
2023/03/28 05:23:42;;;;;;;;;;;;;;;;;;5048950;28;20014;-43
2023/03/28 05:26:08;;;;;;;;;;;;;;;;;;5054466;28;19913;-44
2023/03/28 05:28:34;;;;;;;;;;;;;;;;;;5048466;28;19921;-43
2023/03/28 05:31:00;;;;;;;;;;;;;;;;;;5059775;28;19912;-43
2023/03/28 05:33:26;;;;;;;;;;;;;;;;;;5058015;28;19935;-44
2023/03/28 05:35:52;;;;;;;;;;;;;;;;;;5048846;28;19909;-44
2023/03/28 05:38:18;;;;;;;;;;;;;;;;;;5048878;28;20461;-44
2023/03/28 05:40:44;;;;;;;;;;;;;;;;;;5048881;28;19912;-43
2023/03/28 05:43:10;;;;;;;;;;;;;;;;;;5048330;28;19916;-44
2023/03/28 05:45:36;;;;;;;;;;;;;;;;;;5048738;28;19913;-44
2023/03/28 05:48:02;;;;;;;;;;;;;;;;;;5049053;28;19916;-44
2023/03/28 05:50:28;;;;;;;;;;;;;;;;;;5048787;28;20029;-44
2023/03/28 05:52:54;;;;;;;;;;;;;;;;;;5049079;28;19919;-45
2023/03/28 05:55:20;;;;;;;;;;;;;;;;;;5048787;28;19913;-43
2023/03/28 05:57:46;;;;;;;;;;;;;;;;;;5048716;28;19943;-44
2023/03/28 06:00:12;;;;;;;;;;;;;;;;;;5048165;28;19960;-45
2023/03/28 06:02:39;;;;;;;;;;;;;;;;;;5037276;28;19970;-44
2023/03/28 06:05:06;;;;;;;;;;;;;;;;;;5048530;28;20386;-43
2023/03/28 06:07:32;;;;;;;;;;;;;;;;;;5048333;28;19960;-43
2023/03/28 06:09:58;;;;;;;;;;;;;;;;;;5044169;28;19949;-43
2023/03/28 06:12:24;;;;;;;;;;;;;;;;;;5028227;28;19960;-43
2023/03/28 06:14:50;;;;;;;;;;;;;;;;;;5027097;28;20000;-43
2023/03/28 06:17:16;;;;;;;;;;;;;;;;;;5027587;28;19932;-43
2023/03/28 06:19:42;;;;;;;;;;;;;;;;;;5028536;28;19959;-44
2023/03/28 06:22:08;;;;;;;;;;;;;;;;;;5028830;28;19913;-44
2023/03/28 06:24:34;;;;;;;;;;;;;;;;;;5028805;28;20415;-43
2023/03/28 06:27:00;;;;;;;;;;;;;;;;;;5028743;28;19955;-45
2023/03/28 06:29:26;;;;;;;;;;;;;;;;;;5028204;28;19920;-44
2023/03/28 06:31:52;;;;;;;;;;;;;;;;;;5026739;28;19914;-43
2023/03/28 06:34:20;;;;;;;;;;;;;;;;;;5026485;28;19915;-43
2023/03/28 06:36:45;;;;;;;;;;;;;;;;;;5027131;28;19909;-45
2023/03/28 06:39:11;;;;;;;;;;;;;;;;;;5027252;28;19921;-44
2023/03/28 06:41:37;;;;;;;;;;;;;;;;;;5026916;28;20439;-45
2023/03/28 06:44:03;;;;;;;;;;;;;;;;;;5026634;28;20004;-44
2023/03/28 06:46:29;;;;;;;;;;;;;;;;;;5027423;28;20303;-43
2023/03/28 06:48:56;;;;;;;;;;;;;;;;;;5026780;28;19913;-44
2023/03/28 06:51:22;;;;;;;;;;;;;;;;;;5026938;28;19948;-45
2023/03/28 06:53:48;;;;;;;;;;;;;;;;;;5027026;28;20007;-44
2023/03/28 06:56:15;;;;;;;;;;;;;;;;;;5029781;28;19924;-43
2023/03/28 06:58:40;;;;;;;;;;;;;;;;;;5029864;28;19913;-44
2023/03/28 07:01:06;;;;;;;;;;;;;;;;;;5029813;28;20291;-45
2023/03/28 07:03:33;;;;;;;;;;;;;;;;;;5030358;28;19914;-44
2023/03/28 07:06:00;;;;;;;;;;;;;;;;;;5029981;28;19917;-45
2023/03/28 07:08:26;;;;;;;;;;;;;;;;;;5030202;28;20344;-44
2023/03/28 07:10:52;;;;;;;;;;;;;;;;;;5038673;28;19955;-46
2023/03/28 07:13:18;;;;;;;;;;;;;;;;;;5066738;28;19917;-43
2023/03/28 07:15:45;;;;;;;;;;;;;;;;;;5051000;28;19920;-44
2023/03/28 07:18:11;;;;;;;;;;;;;;;;;;5048901;28;19929;-44
2023/03/28 07:20:36;;;;;;;;;;;;;;;;;;5048468;28;19916;-44
2023/03/28 07:23:03;;;;;;;;;;;;;;;;;;5048077;28;19931;-44
2023/03/28 07:25:29;;;;;;;;;;;;;;;;;;5048395;28;19961;-44
2023/03/28 07:27:54;;;;;;;;;;;;;;;;;;5047960;28;20331;-44
2023/03/28 07:30:20;;;;;;;;;;;;;;;;;;5047855;28;19954;-47
2023/03/28 07:32:46;;;;;;;;;;;;;;;;;;5047992;28;20213;-44
2023/03/28 07:35:12;;;;;;;;;;;;;;;;;;5048569;28;19909;-44
2023/03/28 07:37:39;;;;;;;;;;;;;;;;;;5047838;28;20016;-43
2023/03/28 07:40:05;;;;;;;;;;;;;;;;;;5048192;28;19924;-44
2023/03/28 07:42:31;;;;;;;;;;;;;;;;;;5048130;28;20376;-44
2023/03/28 07:44:57;;;;;;;;;;;;;;;;;;5047557;28;19913;-44
2023/03/28 07:47:24;;;;;;;;;;;;;;;;;;5047888;28;19956;-44
2023/03/28 07:49:51;;;;;;;;;;;;;;;;;;5047566;28;19935;-44
2023/03/28 07:52:19;;;;;;;;;;;;;;;;;;5047564;28;19917;-44
2023/03/28 07:54:45;;;;;;;;;;;;;;;;;;5048232;28;19913;-43
2023/03/28 07:57:11;;;;;;;;;;;;;;;;;;5048135;28;19956;-45
2023/03/28 07:59:37;;;;;;;;;;;;;;;;;;5047391;28;19962;-44
2023/03/28 08:02:03;;;;;;;;;;;;;;;;;;5047634;28;19909;-45
2023/03/28 08:04:29;;;;;;;;;;;;;;;;;;5046499;28;19917;-43
2023/03/28 08:06:55;;;;;;;;;;;;;;;;;;5046992;28;20008;-45
2023/03/28 08:09:21;;;;;;;;;;;;;;;;;;5047257;28;20004;-45
2023/03/28 08:11:47;;;;;;;;;;;;;;;;;;5047231;28;19923;-44
2023/03/28 08:14:14;;;;;;;;;;;;;;;;;;5031432;28;19917;-45
2023/03/28 08:16:40;;;;;;;;;;;;;;;;;;5026571;28;19918;-45
2023/03/28 08:19:06;;;;;;;;;;;;;;;;;;5033317;28;19967;-44
2023/03/28 08:21:34;;;;;;;;;;;;;;;;;;5028540;28;19915;-43
2023/03/28 08:23:59;;;;;;;;;;;;;;;;;;5046490;28;19917;-46
2023/03/28 08:26:26;;;;;;;;;;;;;;;;;;5048283;28;19917;-44
2023/03/28 08:28:53;;;;;;;;;;;;;;;;;;5035102;28;19920;-44
2023/03/28 08:31:22;;;;;;;;;;;;;;;;;;5023843;28;19978;-45
2023/03/28 08:33:50;;;;;;;;;;;;;;;;;;5023800;28;19913;-45
2023/03/28 08:36:16;;;;;;;;;;;;;;;;;;5046486;28;19936;-45
2023/03/28 08:38:42;;;;;;;;;;;;;;;;;;5043301;28;19916;-44
2023/03/28 08:41:07;;;;;;;;;;;;;;;;;;5008835;28;19913;-46
2023/03/28 08:43:33;;;;;;;;;;;;;;;;;;5026937;28;19936;-43
2023/03/28 08:46:00;;;;;;;;;;;;;;;;;;5038069;28;19923;-43
2023/03/28 08:48:27;;;;;;;;;;;;;;;;;;5034329;28;19916;-45
2023/03/28 08:50:52;;;;;;;;;;;;;;;;;;5038497;28;20067;-44
2023/03/28 08:53:19;;;;;;;;;;;;;;;;;;5030471;28;20312;-45
2023/03/28 08:55:45;;;;;;;;;;;;;;;;;;5026754;28;19920;-45
2023/03/28 08:58:11;;;;;;;;;;;;;;;;;;5030599;28;19921;-44
2023/03/28 09:00:37;;;;;;;;;;;;;;;;;;5043944;28;19962;-44
2023/03/28 09:03:03;;;;;;;;;;;;;;;;;;5042023;28;20295;-44
2023/03/28 09:05:30;;;;;;;;;;;;;;;;;;5026371;28;20012;-44
2023/03/28 09:07:58;;;;;;;;;;;;;;;;;;5026086;28;20308;-44
2023/03/28 09:10:24;;;;;;;;;;;;;;;;;;5035557;28;19917;-43
2023/03/28 09:12:50;;;;;;;;;;;;;;;;;;5021751;28;20284;-44
2023/03/28 09:15:16;;;;;;;;;;;;;;;;;;5048570;28;19919;-44
2023/03/28 09:17:42;;;;;;;;;;;;;;;;;;5050780;28;19921;-44
2023/03/28 09:20:11;;;;;;;;;;;;;;;;;;5049440;28;20023;-44
2023/03/28 09:22:37;;;;;;;;;;;;;;;;;;5045311;28;19955;-43
2023/03/28 09:25:03;;;;;;;;;;;;;;;;;;5045308;28;19960;-45
2023/03/28 09:27:29;;;;;;;;;;;;;;;;;;5044952;28;19971;-44
2023/03/28 09:29:55;;;;;;;;;;;;;;;;;;5044154;28;20371;-44
2023/03/28 09:32:21;;;;;;;;;;;;;;;;;;5045114;28;19909;-43
2023/03/28 09:34:47;;;;;;;;;;;;;;;;;;5045374;28;19913;-44
2023/03/28 09:37:13;;;;;;;;;;;;;;;;;;5045192;28;19916;-45
2023/03/28 09:39:40;;;;;;;;;;;;;;;;;;5027365;28;19986;-43
2023/03/28 09:42:06;;;;;;;;;;;;;;;;;;5044589;28;19924;-44
2023/03/28 09:44:32;;;;;;;;;;;;;;;;;;5042767;28;19954;-45
2023/03/28 09:47:00;;;;;;;;;;;;;;;;;;5045473;28;19952;-44
2023/03/28 09:49:26;;;;;;;;;;;;;;;;;;5046301;28;19963;-44
2023/03/28 09:51:52;;;;;;;;;;;;;;;;;;5045615;28;19944;-44
2023/03/28 09:54:18;;;;;;;;;;;;;;;;;;5045551;28;19912;-44
2023/03/28 09:56:45;;;;;;;;;;;;;;;;;;5045332;28;19940;-44
2023/03/28 09:59:11;;;;;;;;;;;;;;;;;;5044075;28;20550;-44
2023/03/28 10:01:37;;;;;;;;;;;;;;;;;;5027979;28;19935;-44
2023/03/28 10:04:03;;;;;;;;;;;;;;;;;;5045282;28;19978;-44
2023/03/28 10:06:29;;;;;;;;;;;;;;;;;;5044639;28;19950;-44
2023/03/28 10:08:55;;;;;;;;;;;;;;;;;;5045713;28;19917;-44
2023/03/28 10:11:21;;;;;;;;;;;;;;;;;;5027507;28;19917;-46
2023/03/28 10:13:47;;;;;;;;;;;;;;;;;;5044858;28;20484;-44
2023/03/28 10:16:13;;;;;;;;;;;;;;;;;;5037744;28;19913;-43
2023/03/28 10:18:40;;;;;;;;;;;;;;;;;;5035665;28;20003;-43
2023/03/28 10:21:06;;;;;;;;;;;;;;;;;;5043854;28;19916;-44
2023/03/28 10:23:32;;;;;;;;;;;;;;;;;;5044857;28;21077;-45
2023/03/28 10:25:58;;;;;;;;;;;;;;;;;;5046078;28;19982;-45
2023/03/28 10:28:24;;;;;;;;;;;;;;;;;;5045361;28;19948;-45
2023/03/28 10:30:50;;;;;;;;;;;;;;;;;;5049411;28;19917;-44
2023/03/28 10:33:16;;;;;;;;;;;;;;;;;;5048955;28;19955;-45
2023/03/28 10:35:42;;;;;;;;;;;;;;;;;;5049221;28;19995;-44
2023/03/28 10:38:08;;;;;;;;;;;;;;;;;;5052036;28;19909;-45
2023/03/28 10:40:34;;;;;;;;;;;;;;;;;;5048285;28;19913;-45
2023/03/28 10:43:00;;;;;;;;;;;;;;;;;;5049249;28;19936;-45
2023/03/28 10:45:26;;;;;;;;;;;;;;;;;;5051160;28;19912;-45
2023/03/28 10:47:52;;;;;;;;;;;;;;;;;;5047869;28;19913;-46
2023/03/28 10:50:18;;;;;;;;;;;;;;;;;;5042901;28;19939;-48
2023/03/28 10:52:45;;;;;;;;;;;;;;;;;;5030288;28;19951;-48
2023/03/28 10:55:11;;;;;;;;;;;;;;;;;;5048224;28;20418;-48
2023/03/28 10:57:37;;;;;;;;;;;;;;;;;;5047183;28;19955;-48
2023/03/28 11:00:05;;;;;;;;;;;;;;;;;;5048549;28;19917;-47
2023/03/28 11:02:31;;;;;;;;;;;;;;;;;;5049147;28;19913;-47
2023/03/28 11:04:57;;;;;;;;;;;;;;;;;;5050264;28;20391;-48
2023/03/28 11:07:23;;;;;;;;;;;;;;;;;;5049616;28;19913;-49
2023/03/28 11:09:49;;;;;;;;;;;;;;;;;;5049516;28;19913;-47
2023/03/28 11:12:15;;;;;;;;;;;;;;;;;;5049193;28;19943;-47
2023/03/28 11:14:41;;;;;;;;;;;;;;;;;;5049750;28;19976;-47
2023/03/28 11:17:07;;;;;;;;;;;;;;;;;;5048686;28;19916;-47
2023/03/28 11:19:33;;;;;;;;;;;;;;;;;;5049354;28;19935;-49
2023/03/28 11:21:59;;;;;;;;;;;;;;;;;;5049452;28;20005;-44
2023/03/28 11:24:25;;;;;;;;;;;;;;;;;;5050423;28;20380;-45
2023/03/28 11:26:50;;;;;;;;;;;;;;;;;;5042799;28;20015;-45
2023/03/28 11:29:17;;;;;;;;;;;;;;;;;;5047965;28;19916;-44
2023/03/28 11:31:43;;;;;;;;;;;;;;;;;;5045249;28;19912;-45
2023/03/28 11:34:10;;;;;;;;;;;;;;;;;;5047307;28;19967;-45
2023/03/28 11:36:36;;;;;;;;;;;;;;;;;;5047858;28;20284;-48
2023/03/28 11:39:02;;;;;;;;;;;;;;;;;;5047712;28;19943;-50
2023/03/28 11:41:28;;;;;;;;;;;;;;;;;;5048743;28;19913;-49
2023/03/28 11:43:54;;;;;;;;;;;;;;;;;;5049197;28;20434;-48
2023/03/28 11:46:20;;;;;;;;;;;;;;;;;;5044107;28;19917;-47
2023/03/28 11:48:46;;;;;;;;;;;;;;;;;;5048994;28;20023;-47
2023/03/28 11:51:12;;;;;;;;;;;;;;;;;;5049060;28;20003;-48
2023/03/28 11:53:38;;;;;;;;;;;;;;;;;;5047769;28;19935;-50
2023/03/28 11:56:05;;;;;;;;;;;;;;;;;;5047563;28;19913;-48
2023/03/28 11:58:31;;;;;;;;;;;;;;;;;;5045037;28;19921;-50
2023/03/28 12:00:57;;;;;;;;;;;;;;;;;;5046289;28;19971;-47
2023/03/28 12:03:23;;;;;;;;;;;;;;;;;;5045677;28;19924;-49
2023/03/28 12:05:49;;;;;;;;;;;;;;;;;;5047181;28;19920;-47
2023/03/28 12:08:16;;;;;;;;;;;;;;;;;;5048258;28;19972;-47
2023/03/28 12:10:42;;;;;;;;;;;;;;;;;;5048201;28;20337;-47
2023/03/28 12:13:07;;;;;;;;;;;;;;;;;;5047974;28;19920;-47
2023/03/28 12:15:34;;;;;;;;;;;;;;;;;;5048501;28;19913;-47
2023/03/28 12:18:00;;;;;;;;;;;;;;;;;;5045869;28;19913;-47
2023/03/28 12:20:27;;;;;;;;;;;;;;;;;;5048702;28;19909;-48
2023/03/28 12:22:52;;;;;;;;;;;;;;;;;;5043537;28;19925;-48
2023/03/28 12:25:19;;;;;;;;;;;;;;;;;;5048126;28;20375;-49
2023/03/28 12:27:45;;;;;;;;;;;;;;;;;;5047207;28;19991;-47
2023/03/28 12:30:11;;;;;;;;;;;;;;;;;;5057930;28;19966;-45
2023/03/28 12:32:37;;;;;;;;;;;;;;;;;;5048333;28;20330;-49
2023/03/28 12:35:04;;;;;;;;;;;;;;;;;;5047963;28;20468;-45
2023/03/28 12:37:30;;;;;;;;;;;;;;;;;;5047973;28;19913;-46
2023/03/28 12:39:56;;;;;;;;;;;;;;;;;;5047977;28;19917;-46
2023/03/28 12:42:22;;;;;;;;;;;;;;;;;;5047728;28;19913;-50
2023/03/28 12:44:48;;;;;;;;;;;;;;;;;;5047973;28;19909;-46
2023/03/28 12:47:14;;;;;;;;;;;;;;;;;;5047519;28;19919;-49
2023/03/28 12:49:40;;;;;;;;;;;;;;;;;;5047651;28;19920;-49
2023/03/28 12:52:06;;;;;;;;;;;;;;;;;;5046740;28;20372;-49
2023/03/28 12:54:32;;;;;;;;;;;;;;;;;;5046566;28;19923;-48
2023/03/28 12:56:58;;;;;;;;;;;;;;;;;;5040954;28;19989;-49
2023/03/28 12:59:24;;;;;;;;;;;;;;;;;;5047778;28;19916;-47
2023/03/28 13:01:50;;;;;;;;;;;;;;;;;;5036095;28;20022;-47
2023/03/28 13:04:17;;;;;;;;;;;;;;;;;;5047045;28;19909;-48
2023/03/28 13:06:43;;;;;;;;;;;;;;;;;;5046450;28;19924;-49
2023/03/28 13:09:08;;;;;;;;;;;;;;;;;;5038146;28;20280;-48
2023/03/28 13:11:35;;;;;;;;;;;;;;;;;;5041014;28;19923;-45
2023/03/28 13:14:01;;;;;;;;;;;;;;;;;;5054375;28;20399;-49
2023/03/28 13:16:27;;;;;;;;;;;;;;;;;;5046080;28;19920;-45
2023/03/28 13:18:53;;;;;;;;;;;;;;;;;;5045740;28;20144;-46
2023/03/28 13:21:20;;;;;;;;;;;;;;;;;;5045591;28;20432;-46
2023/03/28 13:23:46;;;;;;;;;;;;;;;;;;5045491;28;20292;-47
2023/03/28 13:26:12;;;;;;;;;;;;;;;;;;5046020;28;20020;-45
2023/03/28 13:28:39;;;;;;;;;;;;;;;;;;5064197;28;20027;-45
2023/03/28 13:31:05;;;;;;;;;;;;;;;;;;5046234;28;19921;-45
2023/03/28 13:33:31;;;;;;;;;;;;;;;;;;5045273;28;19943;-44
2023/03/28 13:35:57;;;;;;;;;;;;;;;;;;5046796;28;19920;-48
2023/03/28 13:38:23;;;;;;;;;;;;;;;;;;5061573;28;19929;-45
2023/03/28 13:40:55;;;;;;;;;;;;;;;;;;5046822;28;20439;-45
2023/03/28 13:43:21;;;;;;;;;;;;;;;;;;5038333;28;19963;-45
2023/03/28 13:45:47;;;;;;;;;;;;;;;;;;5047186;28;19912;-45
2023/03/28 13:48:12;;;;;;;;;;;;;;;;;;5046002;28;19940;-45
2023/03/28 13:50:38;;;;;;;;;;;;;;;;;;5046174;28;19948;-47
2023/03/28 13:53:05;;;;;;;;;;;;;;;;;;5046525;28;19912;-45
2023/03/28 13:55:31;;;;;;;;;;;;;;;;;;5045719;28;19991;-47
2023/03/28 13:57:56;;;;;;;;;;;;;;;;;;5046755;28;20008;-46
2023/03/28 14:00:22;;;;;;;;;;;;;;;;;;5046530;28;19975;-46
2023/03/28 14:02:48;;;;;;;;;;;;;;;;;;5047779;28;19935;-46
2023/03/28 14:05:14;;;;;;;;;;;;;;;;;;5050518;28;19909;-46
2023/03/28 14:07:40;;;;;;;;;;;;;;;;;;5048216;28;19917;-49
2023/03/28 14:10:06;;;;;;;;;;;;;;;;;;5049805;28;19916;-46
2023/03/28 14:12:33;;;;;;;;;;;;;;;;;;5050070;28;19916;-47
2023/03/28 14:14:59;;;;;;;;;;;;;;;;;;5050384;28;19909;-46
2023/03/28 14:17:25;;;;;;;;;;;;;;;;;;5048821;28;19931;-48
2023/03/28 14:19:51;;;;;;;;;;;;;;;;;;5049943;28;19917;-46
2023/03/28 14:22:17;;;;;;;;;;;;;;;;;;5050641;28;20364;-48
2023/03/28 14:24:43;;;;;;;;;;;;;;;;;;5050076;28;19920;-47
2023/03/28 14:27:09;;;;;;;;;;;;;;;;;;5050307;28;19916;-46
2023/03/28 14:29:35;;;;;;;;;;;;;;;;;;5049896;28;20460;-46
2023/03/28 14:32:02;;;;;;;;;;;;;;;;;;5043104;28;19913;-46
2023/03/28 14:34:34;;;;;;;;;;;;;;;;;;5044119;28;20043;-45
2023/03/28 14:37:00;;;;;;;;;;;;;;;;;;5050069;28;19916;-47
2023/03/28 14:39:26;;;;;;;;;;;;;;;;;;5047887;28;19916;-45
2023/03/28 14:41:51;;;;;;;;;;;;;;;;;;5046804;28;20368;-48
2023/03/28 14:44:17;;;;;;;;;;;;;;;;;;5050157;28;19963;-47
2023/03/28 14:46:48;;;;;;;;;;;;;;;;;;5049502;28;19939;-45
2023/03/28 14:49:14;;;;;;;;;;;;;;;;;;5050045;28;19943;-46
2023/03/28 14:51:40;;;;;;;;;;;;;;;;;;5049826;28;19913;-48
2023/03/28 14:54:07;;;;;;;;;;;;;;;;;;5049912;28;19913;-45
2023/03/28 14:56:33;;;;;;;;;;;;;;;;;;5049806;28;20516;-46
2023/03/28 14:58:59;;;;;;;;;;;;;;;;;;5049114;28;19917;-47
2023/03/28 15:01:25;;;;;;;;;;;;;;;;;;5049975;28;19909;-46
2023/03/28 15:03:51;;;;;;;;;;;;;;;;;;5048395;28;19975;-46
2023/03/28 15:06:17;;;;;;;;;;;;;;;;;;5048191;28;20299;-47
2023/03/28 15:08:43;;;;;;;;;;;;;;;;;;5049789;28;19924;-46
2023/03/28 15:11:09;;;;;;;;;;;;;;;;;;5048661;28;19917;-47
2023/03/28 15:13:35;;;;;;;;;;;;;;;;;;5048810;28;20429;-46
2023/03/28 15:16:04;;;;;;;;;;;;;;;;;;5049210;28;20276;-47
2023/03/28 15:18:32;;;;;;;;;;;;;;;;;;5049042;28;19924;-46
2023/03/28 15:20:58;;;;;;;;;;;;;;;;;;5048871;28;20435;-47
2023/03/28 15:23:24;;;;;;;;;;;;;;;;;;5052703;28;19935;-46
2023/03/28 15:25:51;;;;;;;;;;;;;;;;;;5045264;28;19913;-46
2023/03/28 15:28:17;;;;;;;;;;;;;;;;;;5047852;28;20354;-46
2023/03/28 15:30:43;;;;;;;;;;;;;;;;;;5044700;28;20344;-46
2023/03/28 15:33:09;;;;;;;;;;;;;;;;;;5045740;28;19927;-46
2023/03/28 15:35:35;;;;;;;;;;;;;;;;;;5047054;28;19912;-46
2023/03/28 15:38:01;;;;;;;;;;;;;;;;;;5047918;28;19995;-46
2023/03/28 15:40:27;;;;;;;;;;;;;;;;;;5049848;28;19925;-48
2023/03/28 15:42:53;;;;;;;;;;;;;;;;;;5047308;28;19920;-46
2023/03/28 15:45:19;;;;;;;;;;;;;;;;;;5047196;28;19912;-46
2023/03/28 15:47:45;;;;;;;;;;;;;;;;;;5047974;28;19955;-46
2023/03/28 15:50:11;;;;;;;;;;;;;;;;;;5048003;28;19917;-47
2023/03/28 15:52:37;;;;;;;;;;;;;;;;;;5048873;28;19943;-47
2023/03/28 15:55:03;;;;;;;;;;;;;;;;;;5047952;28;19920;-46
2023/03/28 15:57:29;;;;;;;;;;;;;;;;;;5049057;28;19917;-48
2023/03/28 15:59:56;;;;;;;;;;;;;;;;;;5048184;28;19923;-45
2023/03/28 16:02:22;;;;;;;;;;;;;;;;;;5048390;28;19916;-48
2023/03/28 16:04:48;;;;;;;;;;;;;;;;;;5048338;28;19917;-46
2023/03/28 16:07:15;;;;;;;;;;;;;;;;;;5048517;28;19909;-45
2023/03/28 16:09:42;;;;;;;;;;;;;;;;;;5048025;28;20016;-46
2023/03/28 16:12:08;;;;;;;;;;;;;;;;;;5047017;28;19913;-47
2023/03/28 16:14:34;;;;;;;;;;;;;;;;;;5048301;28;20445;-47
2023/03/28 16:17:00;;;;;;;;;;;;;;;;;;5048263;28;19913;-47
2023/03/28 16:19:26;;;;;;;;;;;;;;;;;;5048107;28;19917;-47
2023/03/28 16:21:52;;;;;;;;;;;;;;;;;;5047551;28;20276;-49
2023/03/28 16:24:18;;;;;;;;;;;;;;;;;;5047224;28;19913;-47
2023/03/28 16:26:44;;;;;;;;;;;;;;;;;;5046092;28;20376;-46
2023/03/28 16:29:10;;;;;;;;;;;;;;;;;;5046908;28;19974;-47
2023/03/28 16:31:36;;;;;;;;;;;;;;;;;;5054656;28;20383;-47
2023/03/28 16:34:03;;;;;;;;;;;;;;;;;;5067506;28;19996;-48
2023/03/28 16:36:29;;;;;;;;;;;;;;;;;;5054029;28;19924;-45
2023/03/28 16:38:55;;;;;;;;;;;;;;;;;;5046475;28;19913;-46
2023/03/28 16:41:21;;;;;;;;;;;;;;;;;;5045980;28;19912;-45
2023/03/28 16:43:47;;;;;;;;;;;;;;;;;;5045000;28;19939;-46
2023/03/28 16:46:13;;;;;;;;;;;;;;;;;;5044872;28;19999;-46
2023/03/28 16:48:40;;;;;;;;;;;;;;;;;;5046126;28;20000;-45
2023/03/28 16:51:06;;;;;;;;;;;;;;;;;;5045704;28;19913;-46
2023/03/28 16:53:32;;;;;;;;;;;;;;;;;;5047183;28;19923;-47
2023/03/28 16:55:58;;;;;;;;;;;;;;;;;;5046999;28;19984;-46
2023/03/28 16:58:24;;;;;;;;;;;;;;;;;;5046226;28;20059;-47
2023/03/28 17:00:50;;;;;;;;;;;;;;;;;;5046252;28;19913;-49
2023/03/28 17:03:17;;;;;;;;;;;;;;;;;;5044812;28;19919;-48
2023/03/28 17:05:42;;;;;;;;;;;;;;;;;;5045181;28;19917;-46
2023/03/28 17:08:09;;;;;;;;;;;;;;;;;;5045620;28;19971;-48
2023/03/28 17:10:35;;;;;;;;;;;;;;;;;;5044130;28;20304;-49
2023/03/28 17:13:01;;;;;;;;;;;;;;;;;;5045670;28;19916;-47
2023/03/28 17:15:29;;;;;;;;;;;;;;;;;;5045245;28;19916;-46
2023/03/28 17:17:55;;;;;;;;;;;;;;;;;;5027219;28;19923;-46
2023/03/28 17:20:21;;;;;;;;;;;;;;;;;;5045813;28;19924;-51
2023/03/28 17:22:47;;;;;;;;;;;;;;;;;;5045487;28;20365;-46
2023/03/28 17:25:14;;;;;;;;;;;;;;;;;;5045167;28;19916;-48
2023/03/28 17:27:40;;;;;;;;;;;;;;;;;;5060778;28;19954;-48
2023/03/28 17:30:06;;;;;;;;;;;;;;;;;;5054242;28;20445;-50
2023/03/28 17:32:33;;;;;;;;;;;;;;;;;;5045708;28;19917;-47
2023/03/28 17:34:59;;;;;;;;;;;;;;;;;;5045642;28;19913;-46
2023/03/28 17:37:25;;;;;;;;;;;;;;;;;;5055502;28;19982;-45
2023/03/28 17:39:51;;;;;;;;;;;;;;;;;;5044403;28;20034;-45
2023/03/28 17:42:17;;;;;;;;;;;;;;;;;;5037243;28;19916;-49
2023/03/28 17:44:43;;;;;;;;;;;;;;;;;;5045345;28;19919;-47
2023/03/28 17:47:09;;;;;;;;;;;;;;;;;;5045288;28;19913;-46
2023/03/28 17:49:35;;;;;;;;;;;;;;;;;;5043501;28;20272;-46
2023/03/28 17:52:01;;;;;;;;;;;;;;;;;;5043447;28;19920;-48
2023/03/28 17:54:27;;;;;;;;;;;;;;;;;;5044593;28;20451;-51
2023/03/28 17:56:53;;;;;;;;;;;;;;;;;;5044273;28;19923;-48
2023/03/28 17:59:21;;;;;;;;;;;;;;;;;;5043975;28;19947;-48
2023/03/28 18:01:47;;;;;;;;;;;;;;;;;;5042782;28;19974;-46
2023/03/28 18:04:15;;;;;;;;;;;;;;;;;;5043789;28;20374;-46
2023/03/28 18:06:40;;;;;;;;;;;;;;;;;;5042163;28;19909;-47
2023/03/28 18:09:06;;;;;;;;;;;;;;;;;;5042752;28;19927;-49
2023/03/28 18:11:33;;;;;;;;;;;;;;;;;;5024163;28;19920;-47
2023/03/28 18:13:59;;;;;;;;;;;;;;;;;;5041768;28;19920;-50
2023/03/28 18:16:25;;;;;;;;;;;;;;;;;;5023915;28;19916;-47
2023/03/28 18:18:53;;;;;;;;;;;;;;;;;;5041899;28;19928;-47
2023/03/28 18:21:19;;;;;;;;;;;;;;;;;;5042670;28;19921;-46
2023/03/28 18:23:44;;;;;;;;;;;;;;;;;;5043945;28;19916;-48
2023/03/28 18:26:10;;;;;;;;;;;;;;;;;;5042329;28;20442;-48
2023/03/28 18:28:36;;;;;;;;;;;;;;;;;;5023911;28;19920;-46
2023/03/28 18:31:02;;;;;;;;;;;;;;;;;;5042249;28;19913;-47
2023/03/28 18:33:28;;;;;;;;;;;;;;;;;;5042276;28;19913;-48
2023/03/28 18:35:54;;;;;;;;;;;;;;;;;;5042448;28;19916;-48
2023/03/28 18:38:20;;;;;;;;;;;;;;;;;;5042634;28;19920;-47
2023/03/28 18:40:46;;;;;;;;;;;;;;;;;;5039921;28;21083;-47
2023/03/28 18:43:12;;;;;;;;;;;;;;;;;;5044343;28;19952;-47
2023/03/28 18:45:38;;;;;;;;;;;;;;;;;;5045008;28;19935;-48
2023/03/28 18:48:04;;;;;;;;;;;;;;;;;;5045291;28;19963;-47
2023/03/28 18:50:30;;;;;;;;;;;;;;;;;;5048477;28;20347;-47
2023/03/28 18:52:56;;;;;;;;;;;;;;;;;;5048888;28;19913;-47
2023/03/28 18:55:23;;;;;;;;;;;;;;;;;;5064350;28;19917;-47
2023/03/28 18:57:49;;;;;;;;;;;;;;;;;;5047584;28;19944;-47
2023/03/28 19:00:18;;;;;;;;;;;;;;;;;;5049603;28;19928;-48
2023/03/28 19:02:44;;;;;;;;;;;;;;;;;;5047907;28;19913;-49
2023/03/28 19:05:11;;;;;;;;;;;;;;;;;;5049307;28;19940;-46
2023/03/28 19:07:36;;;;;;;;;;;;;;;;;;5027845;28;20312;-48
2023/03/28 19:10:02;;;;;;;;;;;;;;;;;;5045952;28;19913;-47
2023/03/28 19:12:28;;;;;;;;;;;;;;;;;;5045667;28;19920;-50
2023/03/28 19:14:54;;;;;;;;;;;;;;;;;;5021539;28;19917;-48
2023/03/28 19:17:20;;;;;;;;;;;;;;;;;;5042427;28;19978;-48
2023/03/28 19:19:46;;;;;;;;;;;;;;;;;;5046020;28;19917;-47
2023/03/28 19:22:12;;;;;;;;;;;;;;;;;;5047474;28;19959;-47
2023/03/28 19:24:38;;;;;;;;;;;;;;;;;;5046521;28;19912;-48
2023/03/28 19:27:05;;;;;;;;;;;;;;;;;;5028246;28;19985;-47
2023/03/28 19:29:32;;;;;;;;;;;;;;;;;;5046550;28;19915;-47
2023/03/28 19:31:58;;;;;;;;;;;;;;;;;;5046619;28;20350;-47
2023/03/28 19:34:24;;;;;;;;;;;;;;;;;;5047051;28;20042;-46
2023/03/28 19:36:50;;;;;;;;;;;;;;;;;;5046704;28;19913;-47
2023/03/28 19:39:17;;;;;;;;;;;;;;;;;;5029027;28;19963;-46
2023/03/28 19:41:44;;;;;;;;;;;;;;;;;;5047051;28;19917;-47
2023/03/28 19:44:11;;;;;;;;;;;;;;;;;;5046513;28;19913;-46
2023/03/28 19:46:37;;;;;;;;;;;;;;;;;;5046370;28;19944;-46
2023/03/28 19:49:05;;;;;;;;;;;;;;;;;;5046678;28;20194;-48
2023/03/28 19:51:32;;;;;;;;;;;;;;;;;;5046404;28;19959;-46
2023/03/28 19:53:58;;;;;;;;;;;;;;;;;;5046037;28;19909;-48
2023/03/28 19:56:25;;;;;;;;;;;;;;;;;;5046397;28;20329;-47
2023/03/28 19:58:52;;;;;;;;;;;;;;;;;;5046046;28;19919;-48
2023/03/28 20:01:18;;;;;;;;;;;;;;;;;;5045378;28;19964;-47
2023/03/28 20:03:45;;;;;;;;;;;;;;;;;;5047270;28;20343;-48
2023/03/28 20:06:12;;;;;;;;;;;;;;;;;;5046208;28;19963;-47
2023/03/28 20:08:38;;;;;;;;;;;;;;;;;;5045380;28;19913;-49
2023/03/28 20:11:04;;;;;;;;;;;;;;;;;;5046060;28;19917;-48
2023/03/28 20:13:30;;;;;;;;;;;;;;;;;;5026918;28;20371;-47
2023/03/28 20:15:56;;;;;;;;;;;;;;;;;;5046031;28;20007;-49
2023/03/28 20:18:23;;;;;;;;;;;;;;;;;;5045414;28;19920;-47
2023/03/28 20:20:49;;;;;;;;;;;;;;;;;;5045790;28;20355;-48
2023/03/28 20:23:17;;;;;;;;;;;;;;;;;;5046053;28;19951;-47
2023/03/28 20:25:43;;;;;;;;;;;;;;;;;;5046230;28;19940;-47
2023/03/28 20:28:09;;;;;;;;;;;;;;;;;;5045157;28;19913;-47
2023/03/28 20:30:35;;;;;;;;;;;;;;;;;;5045314;28;19912;-47
2023/03/28 20:33:01;;;;;;;;;;;;;;;;;;5045411;28;19917;-47
2023/03/28 20:35:27;;;;;;;;;;;;;;;;;;5045350;28;19920;-46
2023/03/28 20:37:53;;;;;;;;;;;;;;;;;;5045560;28;19909;-48
2023/03/28 20:40:19;;;;;;;;;;;;;;;;;;5044856;28;19952;-46
2023/03/28 20:42:45;;;;;;;;;;;;;;;;;;5046011;28;19917;-47
2023/03/28 20:45:21;;;;;;;;;;;;;;;;;;5045387;28;20015;-47
2023/03/28 20:47:48;;;;;;;;;;;;;;;;;;5045014;28;19920;-47
2023/03/28 20:50:15;;;;;;;;;;;;;;;;;;5028174;28;19912;-50
2023/03/28 20:52:41;;;;;;;;;;;;;;;;;;5027189;28;20147;-47
2023/03/28 20:55:07;;;;;;;;;;;;;;;;;;5044952;28;19946;-48
2023/03/28 20:57:40;;;;;;;;;;;;;;;;;;5044678;28;20408;-46
2023/03/28 21:00:06;;;;;;;;;;;;;;;;;;5026637;28;19917;-48
2023/03/28 21:02:32;;;;;;;;;;;;;;;;;;5043922;28;20043;-48
2023/03/28 21:05:01;;;;;;;;;;;;;;;;;;5045916;28;19920;-48
2023/03/28 21:07:27;;;;;;;;;;;;;;;;;;5043688;28;19963;-47
2023/03/28 21:09:54;;;;;;;;;;;;;;;;;;5044615;28;19919;-46
2023/03/28 21:12:20;;;;;;;;;;;;;;;;;;5043621;28;19916;-47
2023/03/28 21:14:47;;;;;;;;;;;;;;;;;;5045244;28;19917;-46
2023/03/28 21:17:20;;;;;;;;;;;;;;;;;;5044656;28;19919;-47
2023/03/28 21:19:46;;;;;;;;;;;;;;;;;;5027631;28;19917;-46
2023/03/28 21:22:12;;;;;;;;;;;;;;;;;;5044515;28;20107;-47
2023/03/28 21:24:38;;;;;;;;;;;;;;;;;;5044819;28;20007;-49
2023/03/28 21:27:05;;;;;;;;;;;;;;;;;;5044296;28;19913;-47
2023/03/28 21:29:31;;;;;;;;;;;;;;;;;;5044377;28;19917;-49
2023/03/28 21:31:58;;;;;;;;;;;;;;;;;;5044716;28;19916;-48
2023/03/28 21:34:29;;;;;;;;;;;;;;;;;;5026531;28;19913;-48
2023/03/28 21:36:55;;;;;;;;;;;;;;;;;;5044470;28;19915;-46
2023/03/28 21:39:21;;;;;;;;;;;;;;;;;;5044062;28;19917;-47
2023/03/28 21:41:47;;;;;;;;;;;;;;;;;;5044652;28;19912;-48
2023/03/28 21:44:14;;;;;;;;;;;;;;;;;;5044569;28;19912;-49
2023/03/28 21:46:40;;;;;;;;;;;;;;;;;;5044202;28;19905;-47